Terminal Aerodrome Forecast
Issued by NWS Sioux Falls, SD

Home | Current Version | Previous Version | Text Only | Print | Product List | Glossary On
Versions: 1 2 3 4 5 6 7 8 9 10 11 12 13 14
000
FTUS43 KFSD 222322
TAFFSD
TAF
KFSD 222322Z 2300/2324 24005KT P6SM SKC
     FM230300 20006KT P6SM SKC
     FM231500 21010KT P6SM FEW250
     FM231900 20015G23KT P6SM FEW250=

USA.gov is the U.S. government's official web portal to all federal, state and local government web resources and services.